createdAt,value
2022-10-07T00:00:15.334Z,3.20
2022-10-07T00:05:17.248Z,11.55
2022-10-07T00:10:18.882Z,9.50
2022-10-07T00:15:20.899Z,5.15
2022-10-07T00:20:22.548Z,8.38
2022-10-07T00:25:24.259Z,8.90
2022-10-07T00:30:26.059Z,15.90
2022-10-07T00:35:28.033Z,8.10
2022-10-07T00:40:29.711Z,5.65
2022-10-07T00:45:31.874Z,7.70
2022-10-07T00:50:33.763Z,23.25
2022-10-07T00:55:35.937Z,11.60
2022-10-07T01:00:39.325Z,9.02
2022-10-07T01:05:41.074Z,12.30
2022-10-07T01:11:13.886Z,6.20
2022-10-07T01:21:26.934Z,10.13
2022-10-07T01:26:31.437Z,11.10
2022-10-07T01:31:48.030Z,9.98
2022-10-07T01:36:53.188Z,8.88
2022-10-07T01:41:54.955Z,10.90
2022-10-07T01:46:57.515Z,6.43
2022-10-07T01:52:24.050Z,10.20
2022-10-07T01:57:51.738Z,5.25
2022-10-07T02:03:09.917Z,4.30
2022-10-07T02:08:39.261Z,8.20
2022-10-07T02:13:55.793Z,4.72
2022-10-07T02:18:59.354Z,7.47
2022-10-07T02:24:03.875Z,8.70
2022-10-07T02:29:09.860Z,7.53
2022-10-07T02:34:19.545Z,5.90
2022-10-07T02:39:21.900Z,10.38
2022-10-07T02:44:27.150Z,6.68
2022-10-07T02:49:30.275Z,9.50
2022-10-07T02:54:43.044Z,11.40
2022-10-07T02:59:47.213Z,16.95
2022-10-07T03:04:49.329Z,7.35
2022-10-07T03:09:51.386Z,6.85
2022-10-07T03:14:53.788Z,4.47
2022-10-07T03:19:55.926Z,9.07
2022-10-07T03:24:57.580Z,8.57
2022-10-07T03:29:59.307Z,18.17
2022-10-07T03:35:00.992Z,24.80
2022-10-07T03:40:03.326Z,9.20
2022-10-07T03:45:06.584Z,12.15
2022-10-07T03:50:08.814Z,11.43
2022-10-07T03:55:10.750Z,22.73
2022-10-07T04:00:13.276Z,16.20
2022-10-07T04:05:16.489Z,16.73
2022-10-07T04:10:20.256Z,13.93
2022-10-07T04:15:22.291Z,9.95
2022-10-07T04:20:24.388Z,10.20
2022-10-07T04:25:35.506Z,13.43
2022-10-07T04:30:43.673Z,18.38
2022-10-07T04:35:45.359Z,8.10
2022-10-07T04:40:49.949Z,8.75
2022-10-07T04:45:54.643Z,5.63
2022-10-07T04:51:01.470Z,10.63
2022-10-07T04:56:04.210Z,8.98
2022-10-07T05:01:09.399Z,13.85
2022-10-07T05:06:12.131Z,12.57
2022-10-07T05:11:13.791Z,11.88
2022-10-07T05:16:15.994Z,21.90
2022-10-07T05:21:17.707Z,17.58
2022-10-07T05:26:19.883Z,12.73
2022-10-07T05:31:21.943Z,12.77
2022-10-07T05:36:24.003Z,12.95
2022-10-07T05:41:28.339Z,16.08
2022-10-07T05:46:30.393Z,15.43
2022-10-07T05:51:32.468Z,14.70
2022-10-07T05:56:36.734Z,9.85
2022-10-07T06:01:38.472Z,19.13
2022-10-07T06:06:40.315Z,16.27
2022-10-07T06:12:00.670Z,15.98
2022-10-07T06:17:02.459Z,18.13
2022-10-07T06:22:04.609Z,10.98
2022-10-07T06:27:07.540Z,11.55
2022-10-07T06:32:09.244Z,10.73
2022-10-07T06:37:10.930Z,13.13
2022-10-07T06:42:13.183Z,11.32
2022-10-07T06:47:15.327Z,11.68
2022-10-07T06:52:17.023Z,32.85
2022-10-07T06:57:44.233Z,20.95
2022-10-07T07:02:40.466Z,24.73
2022-10-07T07:07:42.598Z,21.70
2022-10-07T07:12:45.098Z,16.30
2022-10-07T07:17:48.533Z,14.35
2022-10-07T07:22:52.399Z,12.65
2022-10-07T07:27:57.874Z,14.52
2022-10-07T07:33:00.283Z,20.10
2022-10-07T07:38:02.374Z,16.58
2022-10-07T07:43:05.592Z,14.35
2022-10-07T07:48:07.947Z,11.98
2022-10-07T07:53:10.120Z,7.75
2022-10-07T07:58:12.075Z,9.75
2022-10-07T08:03:13.924Z,5.82
2022-10-07T08:08:15.624Z,8.05
2022-10-07T08:13:17.317Z,6.88
2022-10-07T08:18:19.499Z,5.60
2022-10-07T08:23:22.077Z,8.45
2022-10-07T08:28:24.761Z,14.15
2022-10-07T08:33:26.547Z,6.57
2022-10-07T08:38:33.279Z,9.90
2022-10-07T08:43:44.118Z,2.60
2022-10-07T08:48:56.054Z,3.45
2022-10-07T08:54:00.911Z,3.67
2022-10-07T08:59:02.558Z,3.90
2022-10-07T09:04:25.671Z,5.05
2022-10-07T09:09:30.315Z,6.90
2022-10-07T09:14:37.572Z,3.40
2022-10-07T09:19:49.196Z,8.23
2022-10-07T09:24:59.340Z,4.03
2022-10-07T09:30:01.320Z,10.03
2022-10-07T09:35:06.005Z,9.05
2022-10-07T09:40:58.744Z,5.00
2022-10-07T09:46:01.750Z,4.95
2022-10-07T09:51:13.772Z,3.30
2022-10-07T09:56:32.686Z,5.65
2022-10-07T10:01:34.454Z,5.80
2022-10-07T10:06:36.242Z,8.45
2022-10-07T10:11:37.934Z,5.10
2022-10-07T10:16:46.293Z,5.63
2022-10-07T10:21:59.094Z,5.95
2022-10-07T10:27:23.647Z,5.40
2022-10-07T10:32:40.953Z,4.60
2022-10-07T10:37:57.946Z,5.93
2022-10-07T10:43:24.741Z,7.00
2022-10-07T10:48:36.875Z,5.32
2022-10-07T10:54:09.289Z,9.60
2022-10-07T10:59:33.843Z,5.68
2022-10-07T11:04:57.461Z,5.25
2022-10-07T11:10:21.908Z,2.38
2022-10-07T11:15:27.118Z,4.88
2022-10-07T11:20:43.751Z,2.88
2022-10-07T11:26:11.106Z,4.20
2022-10-07T11:31:35.685Z,11.10
2022-10-07T11:37:03.970Z,7.05
2022-10-07T11:42:21.724Z,8.52
2022-10-07T11:47:31.530Z,5.65
2022-10-07T11:52:38.691Z,4.97
2022-10-07T11:57:43.842Z,3.20
2022-10-07T12:02:47.419Z,7.95
2022-10-07T12:08:02.469Z,17.92
2022-10-07T12:13:13.445Z,7.57
2022-10-07T12:18:17.835Z,5.85
2022-10-07T12:23:22.442Z,7.57
2022-10-07T12:28:34.580Z,3.42
2022-10-07T12:33:43.693Z,6.00
2022-10-07T12:38:55.939Z,6.03
2022-10-07T12:44:21.815Z,6.90
2022-10-07T12:49:58.520Z,4.47
2022-10-07T12:55:04.160Z,7.78
2022-10-07T13:00:08.071Z,7.72
2022-10-07T13:05:57.902Z,3.63
2022-10-07T13:11:21.500Z,3.70
2022-10-07T13:16:27.398Z,5.03
2022-10-07T13:21:46.376Z,6.22
2022-10-07T13:26:48.234Z,6.88
2022-10-07T13:32:28.012Z,6.32
2022-10-07T13:37:31.533Z,5.85
2022-10-07T13:42:34.061Z,5.65
2022-10-07T13:47:36.268Z,5.57
2022-10-07T13:52:44.408Z,6.15
2022-10-07T13:57:46.535Z,3.43
2022-10-07T14:02:51.015Z,8.93
2022-10-07T14:07:59.921Z,8.88
2022-10-07T14:13:07.319Z,5.75
2022-10-07T14:18:13.247Z,6.32
2022-10-07T14:23:31.313Z,8.18
2022-10-07T14:28:34.346Z,3.40
2022-10-07T14:34:08.686Z,8.30
2022-10-07T14:39:30.741Z,6.85
2022-10-07T14:44:32.492Z,9.07
2022-10-07T14:49:34.243Z,14.02
2022-10-07T14:54:35.925Z,7.90
2022-10-07T14:59:37.880Z,5.97
2022-10-07T15:04:40.300Z,8.90
2022-10-07T15:09:43.876Z,7.68
2022-10-07T15:14:45.504Z,7.28
2022-10-07T15:19:47.148Z,8.50
2022-10-07T15:24:48.868Z,6.22
2022-10-07T15:29:53.668Z,7.13
2022-10-07T15:34:55.471Z,12.20
2022-10-07T15:39:58.749Z,4.80
2022-10-07T15:45:00.419Z,8.90
2022-10-07T15:50:02.231Z,9.52
2022-10-07T15:55:07.844Z,16.17
2022-10-07T16:00:10.825Z,10.23
2022-10-07T16:05:12.808Z,10.98
2022-10-07T16:10:14.587Z,10.05
2022-10-07T16:15:16.600Z,13.98
2022-10-07T16:20:18.485Z,13.52
2022-10-07T16:25:20.209Z,6.07
2022-10-07T16:30:40.602Z,8.82
2022-10-07T16:35:42.321Z,6.68
2022-10-07T16:40:52.745Z,7.85
2022-10-07T16:45:54.458Z,10.23
2022-10-07T16:50:56.158Z,5.35
2022-10-07T16:56:01.475Z,14.35
2022-10-07T17:01:05.684Z,12.18
2022-10-07T17:06:12.982Z,9.70
2022-10-07T17:11:29.099Z,10.45
2022-10-07T17:16:34.113Z,15.68
2022-10-07T17:21:36.608Z,7.63
2022-10-07T17:26:38.382Z,8.43
2022-10-07T17:31:42.636Z,10.88
2022-10-07T17:36:44.875Z,7.13
2022-10-07T17:41:47.394Z,11.32
2022-10-07T17:46:49.318Z,18.20
2022-10-07T17:51:51.043Z,19.50
2022-10-07T17:56:53.203Z,17.58
2022-10-07T18:01:54.887Z,16.58
2022-10-07T18:06:58.155Z,13.63
2022-10-07T18:12:18.426Z,20.77
2022-10-07T18:17:20.103Z,23.35
2022-10-07T18:22:22.017Z,22.38
2022-10-07T18:28:08.625Z,24.40
2022-10-07T18:32:56.820Z,38.47
2022-10-07T18:37:58.939Z,20.60
2022-10-07T18:43:01.070Z,19.63
2022-10-07T18:48:02.848Z,19.25
2022-10-07T18:53:04.484Z,34.50
2022-10-07T18:58:06.113Z,31.20
2022-10-07T19:03:08.402Z,30.42
2022-10-07T19:08:10.077Z,29.15
2022-10-07T19:13:34.128Z,23.10
2022-10-07T19:18:35.914Z,21.88
2022-10-07T19:23:38.611Z,17.13
2022-10-07T19:28:40.434Z,14.35
2022-10-07T19:33:43.458Z,34.63
2022-10-07T19:38:46.800Z,37.25
2022-10-07T19:43:49.262Z,18.58
2022-10-07T19:48:51.308Z,23.33
2022-10-07T19:53:53.477Z,21.67
2022-10-07T19:59:00.951Z,19.98
2022-10-07T20:04:14.997Z,21.17
2022-10-07T20:09:18.432Z,20.52
2022-10-07T20:14:20.109Z,22.90
2022-10-07T20:19:22.044Z,28.98
2022-10-07T20:24:23.720Z,22.15
2022-10-07T20:29:26.026Z,20.30
2022-10-07T20:34:27.726Z,23.95
2022-10-07T20:39:47.842Z,19.15
2022-10-07T20:44:50.633Z,22.35
2022-10-07T20:49:55.244Z,22.88
2022-10-07T20:54:56.999Z,15.95
2022-10-07T20:59:58.676Z,16.15
2022-10-07T21:05:00.372Z,18.55
2022-10-07T21:10:02.142Z,22.35
2022-10-07T21:15:04.173Z,19.00
2022-10-07T21:20:07.079Z,19.60
2022-10-07T21:25:11.773Z,17.83
2022-10-07T21:30:13.501Z,22.85
2022-10-07T21:35:15.200Z,18.50
2022-10-07T21:40:16.875Z,20.65
2022-10-07T21:45:19.059Z,15.43
2022-10-07T21:50:20.681Z,14.05
2022-10-07T21:55:22.440Z,16.88
2022-10-07T22:00:24.062Z,15.23
2022-10-07T22:05:25.767Z,14.00
2022-10-07T22:10:27.419Z,15.15
2022-10-07T22:15:29.152Z,24.40
2022-10-07T22:20:31.573Z,21.90
2022-10-07T22:25:33.932Z,12.45
2022-10-07T22:30:40.054Z,11.77
2022-10-07T22:35:41.769Z,11.27
2022-10-07T22:40:44.283Z,15.90
2022-10-07T22:45:56.802Z,13.15
2022-10-07T22:51:06.178Z,13.55
2022-10-07T22:56:12.934Z,15.45
2022-10-07T23:01:16.545Z,14.80
2022-10-07T23:06:19.751Z,11.60
2022-10-07T23:11:23.637Z,16.50
2022-10-07T23:16:29.276Z,15.23
2022-10-07T23:21:34.454Z,17.33
2022-10-07T23:26:37.050Z,12.02
2022-10-07T23:31:39.127Z,11.30
2022-10-07T23:36:40.875Z,9.32
2022-10-07T23:41:42.605Z,23.40
2022-10-07T23:46:44.947Z,32.28
2022-10-07T23:51:47.424Z,37.83
2022-10-07T23:56:49.320Z,23.48
